createdAt,value
2022-10-31T00:01:26.846Z,11.27
2022-10-31T00:06:22.516Z,10.90
2022-10-31T00:09:02.547Z,13.93
2022-10-31T00:11:30.219Z,9.50
2022-10-31T00:14:00.153Z,11.88
2022-10-31T00:16:27.535Z,12.02
2022-10-31T00:19:00.207Z,10.43
2022-10-31T00:21:27.799Z,11.07
2022-10-31T00:23:54.987Z,11.13
2022-10-31T00:26:22.271Z,12.77
2022-10-31T00:28:49.725Z,8.45
2022-10-31T00:31:17.045Z,14.20
2022-10-31T00:33:45.078Z,11.75
2022-10-31T00:36:15.174Z,12.63
2022-10-31T00:38:43.582Z,12.48
2022-10-31T00:41:12.305Z,11.07
2022-10-31T00:43:42.151Z,11.05
2022-10-31T00:46:10.339Z,11.57
2022-10-31T00:48:37.548Z,9.18
2022-10-31T00:51:05.860Z,12.60
2022-10-31T00:53:33.324Z,11.70
2022-10-31T00:56:00.632Z,9.50
2022-10-31T00:58:27.815Z,11.45
2022-10-31T01:00:58.412Z,11.25
2022-10-31T01:03:27.909Z,11.50
2022-10-31T01:06:03.277Z,11.40
2022-10-31T01:08:33.652Z,9.88
2022-10-31T01:11:24.181Z,8.38
2022-10-31T01:13:53.630Z,9.30
2022-10-31T01:16:23.488Z,15.50
2022-10-31T01:18:51.861Z,14.02
2022-10-31T01:21:25.204Z,17.45
2022-10-31T01:23:55.295Z,13.20
2022-10-31T01:26:25.225Z,10.02
2022-10-31T01:29:07.180Z,7.60
2022-10-31T01:31:38.728Z,11.75
2022-10-31T01:34:06.540Z,11.05
2022-10-31T01:36:38.885Z,11.10
2022-10-31T01:39:09.052Z,10.30
2022-10-31T01:41:39.631Z,12.55
2022-10-31T01:44:14.656Z,9.88
2022-10-31T01:46:44.733Z,10.77
2022-10-31T01:49:35.548Z,9.80
2022-10-31T01:52:11.060Z,8.13
2022-10-31T01:54:44.516Z,9.10
2022-10-31T01:57:15.874Z,9.90
2022-10-31T01:59:48.669Z,12.48
2022-10-31T02:02:17.364Z,11.40
2022-10-31T02:04:48.680Z,6.22
2022-10-31T02:07:28.884Z,6.33
2022-10-31T02:10:01.666Z,9.43
2022-10-31T02:12:31.370Z,10.38
2022-10-31T02:15:01.647Z,7.85
2022-10-31T02:17:31.165Z,9.82
2022-10-31T02:20:11.407Z,8.05
2022-10-31T02:22:55.339Z,6.18
2022-10-31T02:25:26.396Z,8.40
2022-10-31T02:28:29.124Z,9.30
2022-10-31T02:31:14.913Z,9.52
2022-10-31T02:33:56.125Z,7.85
2022-10-31T02:36:59.245Z,8.10
2022-10-31T02:39:31.196Z,7.72
2022-10-31T02:42:16.114Z,7.68
2022-10-31T02:44:52.770Z,10.27
2022-10-31T02:47:26.985Z,7.70
2022-10-31T02:50:19.131Z,6.25
2022-10-31T02:52:52.945Z,6.75
2022-10-31T02:55:26.060Z,8.02
2022-10-31T02:58:16.568Z,9.02
2022-10-31T03:01:34.301Z,6.32
2022-10-31T03:04:34.895Z,5.18
2022-10-31T03:07:17.334Z,6.25
2022-10-31T03:09:44.365Z,4.55
2022-10-31T03:12:19.647Z,9.32
2022-10-31T03:15:05.341Z,6.55
2022-10-31T03:17:39.502Z,7.32
2022-10-31T03:20:10.683Z,6.75
2022-10-31T03:22:42.948Z,6.55
2022-10-31T03:25:10.927Z,6.15
2022-10-31T03:27:40.621Z,9.52
2022-10-31T03:30:09.125Z,5.53
2022-10-31T03:32:55.610Z,5.50
2022-10-31T03:35:27.053Z,7.50
2022-10-31T03:37:55.519Z,5.93
2022-10-31T03:40:28.111Z,8.68
2022-10-31T03:45:37.038Z,5.93
2022-10-31T03:48:05.024Z,5.43
2022-10-31T03:50:51.000Z,7.82
2022-10-31T03:53:27.891Z,8.18
2022-10-31T03:56:09.064Z,8.10
2022-10-31T03:58:43.683Z,8.48
2022-10-31T04:01:15.284Z,7.20
2022-10-31T04:03:43.916Z,6.13
2022-10-31T04:06:16.065Z,6.85
2022-10-31T04:08:49.280Z,7.57
2022-10-31T04:11:22.256Z,5.10
2022-10-31T04:14:08.273Z,7.22
2022-10-31T04:16:36.839Z,6.80
2022-10-31T04:19:04.282Z,6.03
2022-10-31T04:21:32.108Z,7.25
2022-10-31T04:23:59.349Z,6.72
2022-10-31T04:26:28.752Z,7.82
2022-10-31T04:28:59.691Z,5.20
2022-10-31T04:31:28.742Z,9.20
2022-10-31T04:33:56.159Z,7.32
2022-10-31T04:36:23.790Z,6.40
2022-10-31T04:38:50.841Z,6.70
2022-10-31T04:41:32.441Z,6.93
2022-10-31T04:44:02.611Z,6.30
2022-10-31T04:46:29.758Z,11.02
2022-10-31T04:48:58.387Z,8.57
2022-10-31T04:51:25.537Z,8.55
2022-10-31T04:53:53.101Z,5.43
2022-10-31T04:56:29.572Z,8.85
2022-10-31T04:58:59.964Z,5.75
2022-10-31T05:01:30.558Z,6.00
2022-10-31T05:03:59.892Z,6.35
2022-10-31T05:06:27.267Z,10.93
2022-10-31T05:08:55.092Z,8.23
2022-10-31T05:11:25.300Z,8.32
2022-10-31T05:13:56.005Z,8.63
2022-10-31T05:16:41.902Z,8.75
2022-10-31T05:19:37.899Z,10.38
2022-10-31T05:22:25.302Z,6.25
2022-10-31T05:24:52.481Z,8.82
2022-10-31T05:27:19.612Z,9.88
2022-10-31T05:29:46.772Z,7.00
2022-10-31T05:32:14.448Z,7.82
2022-10-31T05:35:00.155Z,6.10
2022-10-31T05:37:47.756Z,7.68
2022-10-31T05:40:17.191Z,6.43
2022-10-31T05:42:45.251Z,9.90
2022-10-31T05:45:16.473Z,6.75
2022-10-31T05:48:02.642Z,5.60
2022-10-31T05:51:05.580Z,7.20
2022-10-31T05:53:32.682Z,6.78
2022-10-31T05:56:00.089Z,6.38
2022-10-31T05:58:27.238Z,7.50
2022-10-31T06:01:06.962Z,6.00
2022-10-31T06:03:34.414Z,6.68
2022-10-31T06:06:04.399Z,8.88
2022-10-31T06:08:36.938Z,8.95
2022-10-31T06:11:07.700Z,9.35
2022-10-31T06:13:53.678Z,7.75
2022-10-31T06:16:25.222Z,9.18
2022-10-31T06:18:54.903Z,9.05
2022-10-31T06:21:22.684Z,10.88
2022-10-31T06:23:52.120Z,10.48
2022-10-31T06:26:37.671Z,12.15
2022-10-31T06:29:07.164Z,12.65
2022-10-31T06:31:56.425Z,8.02
2022-10-31T06:34:23.821Z,12.80
2022-10-31T06:36:50.955Z,7.55
2022-10-31T06:39:21.857Z,11.07
2022-10-31T06:41:49.587Z,11.57
2022-10-31T06:44:19.991Z,11.98
2022-10-31T06:46:56.690Z,9.43
2022-10-31T06:49:43.531Z,8.77
2022-10-31T06:52:16.408Z,17.30
2022-10-31T06:54:43.538Z,12.93
2022-10-31T06:57:10.636Z,11.68
2022-10-31T06:59:39.421Z,13.77
2022-10-31T07:02:12.729Z,16.50
2022-10-31T07:04:42.693Z,11.50
2022-10-31T07:07:13.325Z,10.88
2022-10-31T07:09:40.466Z,11.48
2022-10-31T07:12:10.037Z,13.05
2022-10-31T07:14:40.734Z,10.35
2022-10-31T07:17:07.966Z,13.80
2022-10-31T07:19:39.679Z,11.27
2022-10-31T07:22:06.951Z,10.27
2022-10-31T07:24:35.330Z,13.75
2022-10-31T07:27:21.239Z,15.10
2022-10-31T07:29:49.292Z,15.40
2022-10-31T07:32:17.532Z,12.85
2022-10-31T07:34:52.088Z,16.77
2022-10-31T07:37:24.307Z,15.63
2022-10-31T07:39:54.561Z,15.45
2022-10-31T07:42:21.739Z,16.33
2022-10-31T07:44:52.649Z,13.68
2022-10-31T07:47:50.916Z,14.15
2022-10-31T07:50:36.668Z,18.90
2022-10-31T07:53:22.141Z,19.25
2022-10-31T07:56:01.816Z,15.30
2022-10-31T07:58:30.700Z,16.05
2022-10-31T08:00:59.805Z,19.42
2022-10-31T08:03:35.124Z,19.85
2022-10-31T08:06:20.900Z,13.82
2022-10-31T08:09:11.540Z,18.25
2022-10-31T08:11:39.612Z,17.70
2022-10-31T08:14:07.544Z,17.70
2022-10-31T08:16:35.233Z,17.45
2022-10-31T08:19:04.882Z,15.68
2022-10-31T08:21:37.666Z,19.55
2022-10-31T08:24:06.252Z,15.35
2022-10-31T08:26:34.002Z,13.73
2022-10-31T08:29:01.564Z,14.50
2022-10-31T08:31:34.479Z,11.02
2022-10-31T08:34:41.888Z,12.00
2022-10-31T08:37:27.468Z,10.90
2022-10-31T08:39:56.163Z,14.45
2022-10-31T08:42:23.253Z,15.18
2022-10-31T08:44:50.559Z,16.83
2022-10-31T08:47:21.526Z,13.13
2022-10-31T08:49:48.915Z,15.05
2022-10-31T08:52:17.162Z,8.82
2022-10-31T08:54:47.185Z,11.88
2022-10-31T08:57:33.005Z,14.38
2022-10-31T09:00:03.265Z,8.82
2022-10-31T09:02:47.543Z,11.88
2022-10-31T09:05:15.233Z,11.10
2022-10-31T09:07:42.255Z,10.75
2022-10-31T09:10:09.594Z,7.82
2022-10-31T09:12:38.765Z,11.15
2022-10-31T09:15:07.642Z,8.98
2022-10-31T09:17:39.951Z,9.80
2022-10-31T09:20:22.857Z,6.57
2022-10-31T09:23:03.069Z,6.40
2022-10-31T09:25:32.115Z,10.73
2022-10-31T09:28:20.049Z,11.50
2022-10-31T09:30:49.494Z,7.15
2022-10-31T09:33:23.769Z,13.20
2022-10-31T09:36:08.697Z,10.57
2022-10-31T09:38:40.831Z,6.68
2022-10-31T09:41:26.507Z,8.07
2022-10-31T09:43:53.768Z,7.72
2022-10-31T09:46:49.668Z,8.45
2022-10-31T09:49:34.285Z,7.03
2022-10-31T09:52:18.435Z,8.77
2022-10-31T09:54:55.068Z,9.15
2022-10-31T09:57:32.192Z,9.82
2022-10-31T10:00:00.652Z,13.65
2022-10-31T10:02:44.439Z,9.45
2022-10-31T10:05:16.187Z,7.28
2022-10-31T10:08:04.730Z,10.60
2022-10-31T10:11:01.094Z,6.30
2022-10-31T10:14:36.346Z,9.35
2022-10-31T10:17:03.414Z,9.43
2022-10-31T10:19:33.582Z,6.30
2022-10-31T10:22:13.449Z,6.78
2022-10-31T10:25:10.989Z,9.00
2022-10-31T10:27:38.629Z,11.45
2022-10-31T10:30:20.462Z,5.47
2022-10-31T10:33:00.676Z,9.75
2022-10-31T10:35:35.100Z,9.98
2022-10-31T10:38:11.038Z,9.20
2022-10-31T10:40:39.438Z,8.40
2022-10-31T10:43:24.964Z,9.70
2022-10-31T10:46:28.345Z,9.88
2022-10-31T10:49:08.360Z,8.18
2022-10-31T10:52:13.320Z,9.30
2022-10-31T10:54:48.046Z,8.38
2022-10-31T10:57:35.920Z,9.95
2022-10-31T11:00:23.906Z,7.65
2022-10-31T11:02:52.362Z,10.02
2022-10-31T11:05:38.500Z,8.15
2022-10-31T11:08:07.289Z,7.90
2022-10-31T11:10:35.161Z,5.65
2022-10-31T11:13:11.709Z,9.32
2022-10-31T11:15:52.655Z,9.00
2022-10-31T11:21:01.880Z,7.03
2022-10-31T11:23:30.358Z,5.65
2022-10-31T11:26:04.961Z,5.75
2022-10-31T11:28:36.047Z,6.70
2022-10-31T11:31:14.711Z,6.40
2022-10-31T11:33:49.406Z,8.55
2022-10-31T11:36:24.555Z,9.15
2022-10-31T11:38:53.014Z,7.53
2022-10-31T11:41:27.966Z,8.88
2022-10-31T11:43:57.688Z,7.22
2022-10-31T11:46:39.608Z,6.47
2022-10-31T11:49:19.112Z,6.90
2022-10-31T11:51:54.379Z,8.13
2022-10-31T11:54:48.881Z,7.40
2022-10-31T11:57:30.931Z,6.55
2022-10-31T12:00:03.132Z,10.25
2022-10-31T12:02:39.674Z,7.45
2022-10-31T12:05:34.254Z,6.03
2022-10-31T12:08:04.507Z,8.02
2022-10-31T12:10:50.334Z,8.43
2022-10-31T12:13:20.935Z,9.45
2022-10-31T12:15:57.498Z,7.78
2022-10-31T12:18:49.725Z,8.75
2022-10-31T12:21:35.293Z,6.55
2022-10-31T12:24:24.254Z,11.48
2022-10-31T12:27:22.463Z,8.13
2022-10-31T12:30:22.303Z,6.82
2022-10-31T12:33:10.179Z,8.77
2022-10-31T12:38:18.087Z,8.52
2022-10-31T12:41:00.528Z,8.05
2022-10-31T12:44:06.042Z,6.77
2022-10-31T12:46:42.382Z,11.48
2022-10-31T12:49:46.676Z,7.72
2022-10-31T12:52:44.823Z,9.07
2022-10-31T12:55:47.387Z,10.73
2022-10-31T12:58:14.730Z,11.82
2022-10-31T13:00:47.496Z,10.45
2022-10-31T13:06:03.767Z,8.88
2022-10-31T13:08:47.095Z,10.73
2022-10-31T13:13:47.118Z,9.32
2022-10-31T13:16:14.272Z,8.77
2022-10-31T13:18:47.884Z,10.38
2022-10-31T13:21:50.321Z,8.55
2022-10-31T13:24:28.340Z,10.88
2022-10-31T13:26:59.817Z,10.32
2022-10-31T13:29:38.169Z,9.85
2022-10-31T13:32:07.004Z,10.25
2022-10-31T13:34:41.541Z,9.50
2022-10-31T13:37:36.903Z,8.95
2022-10-31T13:40:08.990Z,12.50
2022-10-31T13:45:16.209Z,8.85
2022-10-31T13:47:44.515Z,9.32
2022-10-31T13:50:22.780Z,9.05
2022-10-31T13:52:50.024Z,9.18
2022-10-31T13:55:45.454Z,8.23
2022-10-31T13:58:23.881Z,10.18
2022-10-31T14:01:06.359Z,8.13
2022-10-31T14:04:04.640Z,8.07
2022-10-31T14:06:26.317Z,9.27
2022-10-31T14:08:53.861Z,9.98
2022-10-31T14:11:33.012Z,6.90
2022-10-31T14:14:03.635Z,9.07
2022-10-31T14:16:33.149Z,11.75
2022-10-31T14:19:02.772Z,9.88
2022-10-31T14:21:32.563Z,10.50
2022-10-31T14:23:59.662Z,13.70
2022-10-31T14:26:29.887Z,12.77
2022-10-31T14:29:04.519Z,10.02
2022-10-31T14:31:44.651Z,10.93
2022-10-31T14:34:36.713Z,10.75
2022-10-31T14:37:54.973Z,10.27
2022-10-31T14:41:13.317Z,9.77
2022-10-31T14:43:48.012Z,10.02
2022-10-31T14:46:44.315Z,8.82
2022-10-31T14:49:20.265Z,9.13
2022-10-31T14:51:49.911Z,12.38
2022-10-31T14:54:24.620Z,10.15
2022-10-31T14:56:56.533Z,11.82
2022-10-31T14:59:34.476Z,13.05
2022-10-31T15:02:22.495Z,9.90
2022-10-31T15:04:52.428Z,10.18
2022-10-31T15:07:27.660Z,10.48
2022-10-31T15:10:28.479Z,8.18
2022-10-31T15:12:55.850Z,9.18
2022-10-31T15:15:30.031Z,11.50
2022-10-31T15:18:00.735Z,12.82
2022-10-31T15:20:31.731Z,11.38
2022-10-31T15:23:01.024Z,9.23
2022-10-31T15:25:34.055Z,9.95
2022-10-31T15:30:30.962Z,10.80
2022-10-31T15:32:59.370Z,8.27
2022-10-31T15:35:32.000Z,8.52
2022-10-31T15:38:01.793Z,12.32
2022-10-31T15:40:29.666Z,11.95
2022-10-31T15:43:03.253Z,8.05
2022-10-31T15:45:31.726Z,10.43
2022-10-31T15:48:02.619Z,9.40
2022-10-31T15:50:39.098Z,9.15
2022-10-31T15:53:18.630Z,10.75
2022-10-31T15:55:58.907Z,10.43
2022-10-31T15:58:27.265Z,11.02
2022-10-31T16:01:07.153Z,11.45
2022-10-31T16:03:35.777Z,10.05
2022-10-31T16:06:06.375Z,12.63
2022-10-31T16:08:37.147Z,10.68
2022-10-31T16:11:15.974Z,14.10
2022-10-31T16:13:59.833Z,12.35
2022-10-31T16:16:35.261Z,19.40
2022-10-31T16:19:05.594Z,13.18
2022-10-31T16:21:37.452Z,9.93
2022-10-31T16:24:15.078Z,14.32
2022-10-31T16:26:42.829Z,17.98
2022-10-31T16:29:42.671Z,10.15
2022-10-31T16:32:26.124Z,12.95
2022-10-31T16:35:11.213Z,13.60
2022-10-31T16:37:42.269Z,10.63
2022-10-31T16:40:17.087Z,11.80
2022-10-31T16:42:46.028Z,13.38
2022-10-31T16:45:24.723Z,10.77
2022-10-31T16:47:52.770Z,13.90
2022-10-31T16:50:23.854Z,14.98
2022-10-31T16:53:08.771Z,14.48
2022-10-31T16:55:47.419Z,15.77
2022-10-31T16:58:24.303Z,14.07
2022-10-31T17:00:52.807Z,13.43
2022-10-31T17:03:20.768Z,11.82
2022-10-31T17:05:48.037Z,14.88
2022-10-31T17:08:15.351Z,15.63
2022-10-31T17:10:44.963Z,17.92
2022-10-31T17:13:18.040Z,13.60
2022-10-31T17:15:48.496Z,16.92
2022-10-31T17:18:16.971Z,22.15
2022-10-31T17:20:45.182Z,16.40
2022-10-31T17:23:14.532Z,25.48
2022-10-31T17:25:42.130Z,20.02
2022-10-31T17:28:13.874Z,22.08
2022-10-31T17:30:42.579Z,20.83
2022-10-31T17:33:13.059Z,21.60
2022-10-31T17:35:40.436Z,21.63
2022-10-31T17:38:07.623Z,23.63
2022-10-31T17:40:34.841Z,25.05
2022-10-31T17:43:03.982Z,23.13
2022-10-31T17:45:32.758Z,25.95
2022-10-31T17:48:00.179Z,20.27
2022-10-31T17:50:27.811Z,20.60
2022-10-31T17:52:54.871Z,20.98
2022-10-31T17:55:22.046Z,18.27
2022-10-31T17:57:49.355Z,17.35
2022-10-31T18:00:22.781Z,22.13
2022-10-31T18:02:50.411Z,22.65
2022-10-31T18:05:18.002Z,21.23
2022-10-31T18:07:45.707Z,21.90
2022-10-31T18:10:12.831Z,24.13
2022-10-31T18:12:44.130Z,23.08
2022-10-31T18:15:15.053Z,22.20
2022-10-31T18:17:44.097Z,19.15
2022-10-31T18:20:12.885Z,26.20
2022-10-31T18:22:40.063Z,21.13
2022-10-31T18:25:08.845Z,25.30
2022-10-31T18:27:36.885Z,21.85
2022-10-31T18:30:04.428Z,22.85
2022-10-31T18:32:31.542Z,19.63
2022-10-31T18:34:58.528Z,21.75
2022-10-31T18:37:25.644Z,23.50
2022-10-31T18:39:52.636Z,20.80
2022-10-31T18:42:19.815Z,24.55
2022-10-31T18:44:46.844Z,23.08
2022-10-31T18:47:13.988Z,24.65
2022-10-31T18:49:43.591Z,24.58
2022-10-31T18:52:11.836Z,23.35
2022-10-31T18:54:38.967Z,22.63
2022-10-31T18:57:08.856Z,29.00
2022-10-31T18:59:38.416Z,25.85
2022-10-31T19:02:05.834Z,25.42
2022-10-31T19:04:33.118Z,24.30
2022-10-31T19:07:00.818Z,29.63
2022-10-31T19:09:30.959Z,26.10
2022-10-31T19:11:58.038Z,25.85
2022-10-31T19:14:25.167Z,31.13
2022-10-31T19:16:53.013Z,24.55
2022-10-31T19:19:21.159Z,25.50
2022-10-31T19:21:48.418Z,29.13
2022-10-31T19:24:15.941Z,27.52
2022-10-31T19:26:43.206Z,21.17
2022-10-31T19:29:10.823Z,26.55
2022-10-31T19:31:37.929Z,24.23
2022-10-31T19:34:05.303Z,28.73
2022-10-31T19:36:32.663Z,21.08
2022-10-31T19:39:00.060Z,24.27
2022-10-31T19:41:31.928Z,19.88
2022-10-31T19:44:00.481Z,17.17
2022-10-31T19:46:51.707Z,20.98
2022-10-31T19:49:15.581Z,27.60
2022-10-31T19:51:45.679Z,24.70
2022-10-31T19:54:15.016Z,23.25
2022-10-31T19:56:42.252Z,24.00
2022-10-31T19:59:09.555Z,29.25
2022-10-31T20:01:36.945Z,30.25
2022-10-31T20:04:04.236Z,22.55
2022-10-31T20:06:36.794Z,24.00
2022-10-31T20:09:08.118Z,24.13
2022-10-31T20:11:37.323Z,23.83
2022-10-31T20:14:04.882Z,19.42
2022-10-31T20:16:32.820Z,24.08
2022-10-31T20:19:00.265Z,25.05
2022-10-31T20:21:29.358Z,20.73
2022-10-31T20:24:01.596Z,25.38
2022-10-31T20:26:30.382Z,33.97
2022-10-31T20:28:58.583Z,31.15
2022-10-31T20:31:30.222Z,32.13
2022-10-31T20:33:57.680Z,28.25
2022-10-31T20:36:25.507Z,26.50
2022-10-31T20:38:52.920Z,27.25
2022-10-31T20:41:20.202Z,27.15
2022-10-31T20:43:47.983Z,24.67
2022-10-31T20:46:17.489Z,24.08
2022-10-31T20:48:48.728Z,29.60
2022-10-31T20:51:27.681Z,26.65
2022-10-31T20:53:56.828Z,26.67
2022-10-31T20:56:26.038Z,22.80
2022-10-31T20:58:55.491Z,22.83
2022-10-31T21:01:31.334Z,22.60
2022-10-31T21:03:59.198Z,19.85
2022-10-31T21:06:27.327Z,19.27
2022-10-31T21:08:55.209Z,20.75
2022-10-31T21:11:24.765Z,20.70
2022-10-31T21:13:52.614Z,19.98
2022-10-31T21:16:25.427Z,15.95
2022-10-31T21:18:53.875Z,19.35
2022-10-31T21:21:29.124Z,22.60
2022-10-31T21:24:12.453Z,16.98
2022-10-31T21:26:42.835Z,20.20
2022-10-31T21:29:11.894Z,18.27
2022-10-31T21:31:39.747Z,15.55
2022-10-31T21:34:07.097Z,18.05
2022-10-31T21:36:35.023Z,19.05
2022-10-31T21:39:03.154Z,18.52
2022-10-31T21:41:30.285Z,23.23
2022-10-31T21:43:57.762Z,21.48
2022-10-31T21:46:30.643Z,21.77
2022-10-31T21:48:58.584Z,20.10
2022-10-31T21:51:33.442Z,24.20
2022-10-31T21:54:19.342Z,17.30
2022-10-31T21:56:46.518Z,23.27
2022-10-31T21:59:13.932Z,28.85
2022-10-31T22:01:41.546Z,21.00
2022-10-31T22:04:09.008Z,21.08
2022-10-31T22:06:36.652Z,19.63
2022-10-31T22:09:06.205Z,17.25
2022-10-31T22:11:34.551Z,15.55
2022-10-31T22:14:02.209Z,17.27
2022-10-31T22:16:30.873Z,16.38
2022-10-31T22:18:59.580Z,18.58
2022-10-31T22:21:28.494Z,17.13
2022-10-31T22:24:01.913Z,19.23
2022-10-31T22:26:32.930Z,10.95
2022-10-31T22:29:03.291Z,17.20
2022-10-31T22:31:31.943Z,16.08
2022-10-31T22:33:59.763Z,11.95
2022-10-31T22:36:29.322Z,12.10
2022-10-31T22:38:57.298Z,11.10
2022-10-31T22:41:29.740Z,13.85
2022-10-31T22:43:57.804Z,15.93
2022-10-31T22:46:30.048Z,14.02
2022-10-31T22:49:03.055Z,14.43
2022-10-31T22:51:33.211Z,18.67
2022-10-31T22:54:00.635Z,17.58
2022-10-31T22:56:30.477Z,16.67
2022-10-31T22:58:58.988Z,16.65
2022-10-31T23:01:32.276Z,18.55
2022-10-31T23:04:00.553Z,17.85
2022-10-31T23:06:32.807Z,15.85
2022-10-31T23:09:01.724Z,15.43
2022-10-31T23:11:37.467Z,14.55
2022-10-31T23:14:16.536Z,16.63
2022-10-31T23:16:46.821Z,15.65
2022-10-31T23:19:22.166Z,19.02
2022-10-31T23:21:56.674Z,16.88
2022-10-31T23:24:32.119Z,15.60
2022-10-31T23:27:09.940Z,12.07
2022-10-31T23:29:54.485Z,14.88
2022-10-31T23:32:30.890Z,17.88
2022-10-31T23:35:03.175Z,15.43
2022-10-31T23:37:32.183Z,11.55
2022-10-31T23:39:59.838Z,12.98
2022-10-31T23:42:27.984Z,12.30
2022-10-31T23:44:55.481Z,13.13
2022-10-31T23:47:22.825Z,12.98
2022-10-31T23:49:51.027Z,15.65
2022-10-31T23:52:18.462Z,13.90
2022-10-31T23:54:45.604Z,11.50
2022-10-31T23:57:13.960Z,12.55
2022-10-31T23:59:41.167Z,14.30
